Airport ID:KO69
Update Time (UTC):07/04/2020 20:40
Wind Speed (Knots):1
Wind Direction (Magnetic):100
Temperature (°C):16
Dew Point (°C):8
Humidity (%):58
Altimeter (inHg):30.11
Density Altitude (Feet):
Visibility (Miles):10+
Clouds (Hundreds of feet):FEW038
Present Weather:
METAR:METAR KO69 072040Z AUTO 00000KT 10SM FEW038 16/08 A3011 RMK A01

The data displayed is for advisory purposes only and is not to be used for flight planning or operations.

This page is not automatically refreshed. Reload the page to see current data.